createdAt,value
2019-02-05T00:00:26.803Z,8.73
2019-02-05T00:03:33.933Z,8.47
2019-02-05T00:06:39.248Z,7.63
2019-02-05T00:09:44.474Z,7.97
2019-02-05T00:12:49.715Z,8.60
2019-02-05T00:15:54.903Z,7.73
2019-02-05T00:19:00.059Z,8.27
2019-02-05T00:22:06.036Z,8.13
2019-02-05T00:25:11.183Z,9.50
2019-02-05T00:28:16.287Z,9.63
2019-02-05T00:31:21.479Z,10.73
2019-02-05T00:34:26.763Z,9.47
2019-02-05T00:37:31.885Z,8.30
2019-02-05T00:40:37.063Z,7.70
2019-02-05T00:43:42.486Z,7.30
2019-02-05T00:46:47.826Z,9.13
2019-02-05T00:49:54.165Z,8.47
2019-02-05T00:52:59.394Z,8.40
2019-02-05T00:56:05.083Z,7.93
2019-02-05T00:59:10.345Z,7.83
2019-02-05T01:02:15.555Z,8.27
2019-02-05T01:05:20.825Z,8.07
2019-02-05T01:08:27.539Z,8.80
2019-02-05T01:11:32.686Z,8.47
2019-02-05T01:14:39.479Z,8.67
2019-02-05T01:17:44.847Z,7.77
2019-02-05T01:20:49.987Z,8.87
2019-02-05T01:23:55.171Z,8.30
2019-02-05T01:27:00.350Z,7.77
2019-02-05T01:30:06.864Z,8.40
2019-02-05T01:33:11.994Z,8.37
2019-02-05T01:36:17.134Z,7.73
2019-02-05T01:39:22.323Z,6.97
2019-02-05T01:42:27.416Z,7.03
2019-02-05T01:45:32.603Z,8.47
2019-02-05T01:48:37.732Z,7.73
2019-02-05T01:51:42.904Z,6.53
2019-02-05T01:54:48.320Z,7.53
2019-02-05T01:57:53.492Z,7.70
2019-02-05T02:00:58.645Z,6.70
2019-02-05T02:04:03.935Z,7.17
2019-02-05T02:07:09.158Z,8.30
2019-02-05T02:10:17.218Z,8.73
2019-02-05T02:13:22.398Z,7.70
2019-02-05T02:16:27.551Z,8.67
2019-02-05T02:19:32.700Z,7.03
2019-02-05T02:22:37.950Z,6.70
2019-02-05T02:25:43.126Z,8.13
2019-02-05T02:28:48.335Z,8.03
2019-02-05T02:31:54.689Z,7.87
2019-02-05T02:35:00.336Z,8.30
2019-02-05T02:38:05.856Z,8.10
2019-02-05T02:41:11.016Z,7.83
2019-02-05T02:44:16.625Z,7.90
2019-02-05T02:47:21.658Z,7.90
2019-02-05T02:50:26.841Z,8.13
2019-02-05T02:53:32.022Z,8.07
2019-02-05T02:56:37.244Z,7.77
2019-02-05T02:59:42.337Z,7.70
2019-02-05T03:02:49.868Z,8.73
2019-02-05T03:05:55.134Z,9.73
2019-02-05T03:09:00.235Z,12.13
2019-02-05T03:12:05.721Z,9.10
2019-02-05T03:15:11.094Z,8.03
2019-02-05T03:18:16.177Z,8.67
2019-02-05T03:21:21.384Z,8.60
2019-02-05T03:24:26.515Z,11.57
2019-02-05T03:27:31.850Z,10.27
2019-02-05T03:30:36.939Z,9.57
2019-02-05T03:33:42.120Z,9.03
2019-02-05T03:36:50.107Z,8.83
2019-02-05T03:39:55.276Z,8.63
2019-02-05T03:43:00.557Z,8.37
2019-02-05T03:46:19.084Z,9.70
2019-02-05T03:49:24.344Z,10.40
2019-02-05T03:52:39.379Z,13.47
2019-02-05T03:56:05.795Z,15.87
2019-02-05T03:59:20.872Z,13.73
2019-02-05T04:02:41.888Z,9.43
2019-02-05T04:06:23.065Z,9.83
2019-02-05T04:09:50.798Z,9.67
2019-02-05T04:13:39.795Z,10.13
2019-02-05T04:17:19.288Z,8.60
2019-02-05T04:21:14.437Z,8.80
2019-02-05T04:25:00.626Z,8.27
2019-02-05T04:28:51.509Z,8.80
2019-02-05T04:32:25.883Z,9.50
2019-02-05T04:36:20.183Z,10.80
2019-02-05T04:39:47.331Z,10.87
2019-02-05T04:43:20.859Z,10.23
2019-02-05T04:46:58.782Z,10.53
2019-02-05T04:50:28.628Z,10.43
2019-02-05T04:54:10.170Z,10.23
2019-02-05T04:57:58.004Z,10.33
2019-02-05T05:01:58.850Z,9.93
2019-02-05T05:05:45.199Z,10.50
2019-02-05T05:09:34.716Z,10.17
2019-02-05T05:12:39.877Z,10.53
2019-02-05T05:15:44.982Z,13.67
2019-02-05T05:18:50.438Z,13.07
2019-02-05T05:21:55.857Z,12.53
2019-02-05T05:25:01.005Z,12.50
2019-02-05T05:28:10.108Z,11.30
2019-02-05T05:31:13.733Z,10.73
2019-02-05T05:34:18.865Z,11.13
2019-02-05T05:37:24.005Z,9.63
2019-02-05T05:40:29.121Z,10.47
2019-02-05T05:43:34.288Z,9.77
2019-02-05T05:46:39.398Z,10.17
2019-02-05T05:49:44.506Z,9.50
2019-02-05T05:52:49.611Z,9.97
2019-02-05T05:55:55.795Z,9.47
2019-02-05T05:59:00.936Z,10.27
2019-02-05T06:02:07.129Z,13.23
2019-02-05T06:05:13.088Z,12.03
2019-02-05T06:08:18.225Z,13.80
2019-02-05T06:11:23.418Z,14.40
2019-02-05T06:14:28.584Z,13.17
2019-02-05T06:17:33.818Z,13.03
2019-02-05T06:20:39.036Z,14.27
2019-02-05T06:23:44.422Z,14.43
2019-02-05T06:26:49.653Z,15.07
2019-02-05T06:29:55.091Z,14.70
2019-02-05T06:33:00.238Z,13.97
2019-02-05T06:36:05.491Z,14.20
2019-02-05T06:39:10.613Z,14.20
2019-02-05T06:42:15.783Z,13.37
2019-02-05T06:45:20.919Z,17.83
2019-02-05T06:48:26.188Z,17.63
2019-02-05T06:51:31.305Z,16.27
2019-02-05T06:54:36.675Z,16.73
2019-02-05T06:57:41.798Z,16.27
2019-02-05T07:00:49.945Z,16.47
2019-02-05T07:03:55.355Z,16.20
2019-02-05T07:07:00.565Z,15.20
2019-02-05T07:10:07.656Z,16.40
2019-02-05T07:13:12.823Z,16.20
2019-02-05T07:16:17.950Z,15.23
2019-02-05T07:19:23.171Z,23.83
2019-02-05T07:22:28.406Z,29.77
2019-02-05T07:25:33.536Z,21.93
2019-02-05T07:28:38.732Z,16.47
2019-02-05T07:31:43.888Z,13.87
2019-02-05T07:34:49.139Z,11.83
2019-02-05T07:37:54.367Z,13.40
2019-02-05T07:40:59.508Z,11.87
2019-02-05T07:44:05.503Z,12.43
2019-02-05T07:47:10.621Z,11.97
2019-02-05T07:50:18.385Z,11.77
2019-02-05T07:53:23.523Z,12.40
2019-02-05T07:56:28.687Z,12.60
2019-02-05T07:59:33.888Z,12.40
2019-02-05T08:02:39.069Z,12.47
2019-02-05T08:05:44.256Z,13.67
2019-02-05T08:08:49.550Z,13.90
2019-02-05T08:11:54.717Z,12.50
2019-02-05T08:14:59.894Z,12.80
2019-02-05T08:18:05.275Z,12.43
2019-02-05T08:21:10.510Z,13.20
2019-02-05T08:24:15.656Z,38.33
2019-02-05T08:27:20.873Z,39.90
2019-02-05T08:30:31.443Z,15.73
2019-02-05T08:33:36.721Z,19.13
2019-02-05T08:36:42.231Z,17.90
2019-02-05T08:39:47.435Z,33.67
2019-02-05T08:42:52.575Z,12.70
2019-02-05T08:45:58.035Z,12.20
2019-02-05T08:49:03.494Z,12.43
2019-02-05T08:52:08.660Z,10.37
2019-02-05T08:55:15.691Z,11.80
2019-02-05T08:58:30.639Z,14.03
2019-02-05T09:01:27.728Z,17.03
2019-02-05T09:04:33.266Z,13.60
2019-02-05T09:07:38.414Z,13.20
2019-02-05T09:10:43.771Z,11.97
2019-02-05T09:13:49.304Z,12.63
2019-02-05T09:16:54.457Z,13.00
2019-02-05T09:19:59.647Z,12.87
2019-02-05T09:23:05.310Z,13.37
2019-02-05T09:26:10.423Z,17.57
2019-02-05T09:29:15.517Z,14.30
2019-02-05T09:32:21.066Z,14.20
2019-02-05T09:35:26.185Z,13.07
2019-02-05T09:38:31.352Z,14.20
2019-02-05T09:41:36.817Z,13.43
2019-02-05T09:44:41.936Z,14.67
2019-02-05T09:47:47.072Z,15.40
2019-02-05T09:50:52.390Z,16.03
2019-02-05T09:53:57.593Z,14.20
2019-02-05T09:57:02.700Z,13.37
2019-02-05T10:00:14.568Z,14.07
2019-02-05T10:03:19.809Z,14.20
2019-02-05T10:06:24.950Z,13.77
2019-02-05T10:09:30.158Z,14.87
2019-02-05T10:12:35.346Z,14.33
2019-02-05T10:15:41.400Z,13.67
2019-02-05T10:18:46.552Z,14.27
2019-02-05T10:21:51.706Z,14.73
2019-02-05T10:24:56.863Z,13.87
2019-02-05T10:28:02.016Z,13.60
2019-02-05T10:31:07.104Z,12.60
2019-02-05T10:34:12.243Z,12.13
2019-02-05T10:37:17.439Z,12.23
2019-02-05T10:40:24.981Z,12.87
2019-02-05T10:43:30.151Z,12.37
2019-02-05T10:46:35.272Z,14.50
2019-02-05T10:49:40.566Z,14.27
2019-02-05T10:52:45.863Z,13.97
2019-02-05T10:55:51.035Z,13.27
2019-02-05T10:58:56.118Z,15.90
2019-02-05T11:02:01.473Z,13.63
2019-02-05T11:05:08.153Z,14.47
2019-02-05T11:08:13.349Z,14.23
2019-02-05T11:11:18.526Z,13.47
2019-02-05T11:14:23.806Z,12.93
2019-02-05T11:17:29.027Z,14.60
2019-02-05T11:20:34.225Z,14.67
2019-02-05T11:23:40.420Z,14.63
2019-02-05T11:26:45.558Z,15.03
2019-02-05T11:29:50.745Z,13.90
2019-02-05T11:32:55.930Z,15.03
2019-02-05T11:36:01.133Z,14.03
2019-02-05T11:39:14.072Z,12.47
2019-02-05T11:42:19.236Z,12.00
2019-02-05T11:45:24.998Z,14.93
2019-02-05T11:48:30.151Z,15.47
2019-02-05T11:51:35.372Z,12.60
2019-02-05T11:54:40.885Z,11.77
2019-02-05T11:57:45.995Z,12.60
2019-02-05T12:00:58.100Z,14.90
2019-02-05T12:04:03.545Z,19.07
2019-02-05T12:07:08.749Z,11.80
2019-02-05T12:10:14.154Z,12.40
2019-02-05T12:13:19.357Z,12.57
2019-02-05T12:16:24.494Z,11.03
2019-02-05T12:19:29.620Z,12.80
2019-02-05T12:22:37.198Z,12.03
2019-02-05T12:25:42.396Z,12.77
2019-02-05T12:28:47.579Z,13.53
2019-02-05T12:31:52.757Z,11.00
2019-02-05T12:34:57.906Z,11.77
2019-02-05T12:38:03.102Z,11.97
2019-02-05T12:41:08.240Z,11.67
2019-02-05T12:44:13.457Z,12.90
2019-02-05T12:47:18.564Z,12.57
2019-02-05T12:50:29.405Z,12.20
2019-02-05T12:53:35.557Z,11.73
2019-02-05T12:56:40.729Z,12.70
2019-02-05T12:59:45.936Z,12.13
2019-02-05T13:02:54.479Z,13.07
2019-02-05T13:05:58.324Z,13.43
2019-02-05T13:09:04.822Z,13.20
2019-02-05T13:12:10.450Z,11.30
2019-02-05T13:15:15.902Z,11.80
2019-02-05T13:18:25.134Z,11.03
2019-02-05T13:21:28.899Z,11.87
2019-02-05T13:24:34.114Z,13.50
2019-02-05T13:27:42.092Z,12.20
2019-02-05T13:30:47.205Z,12.60
2019-02-05T13:33:52.715Z,11.97
2019-02-05T13:36:57.894Z,11.83
2019-02-05T13:40:03.037Z,11.07
2019-02-05T13:43:08.370Z,10.97
2019-02-05T13:46:14.731Z,11.20
2019-02-05T13:49:20.390Z,11.53
2019-02-05T13:52:25.564Z,11.23
2019-02-05T13:55:42.219Z,10.63
2019-02-05T13:58:47.731Z,10.10
2019-02-05T14:01:52.823Z,9.80
2019-02-05T14:04:57.978Z,10.00
2019-02-05T14:08:03.143Z,9.57
2019-02-05T14:11:08.460Z,10.37
2019-02-05T14:14:13.731Z,10.30
2019-02-05T14:17:19.189Z,8.70
2019-02-05T14:20:24.390Z,8.57
2019-02-05T14:23:29.532Z,8.23
2019-02-05T14:26:34.760Z,7.73
2019-02-05T14:29:39.910Z,8.13
2019-02-05T14:32:44.995Z,8.30
2019-02-05T14:35:50.154Z,8.40
2019-02-05T14:38:55.306Z,9.53
2019-02-05T14:42:00.419Z,7.80
2019-02-05T14:45:07.167Z,5.00
2019-02-05T14:48:12.415Z,7.27
2019-02-05T14:51:17.619Z,6.60
2019-02-05T14:54:22.984Z,4.63
2019-02-05T14:57:28.111Z,4.40
2019-02-05T15:00:34.230Z,4.50
2019-02-05T15:03:39.408Z,4.33
2019-02-05T15:06:44.612Z,4.10
2019-02-05T15:09:49.875Z,5.03
2019-02-05T15:12:55.219Z,4.30
2019-02-05T15:16:00.310Z,4.30
2019-02-05T15:19:05.603Z,4.00
2019-02-05T15:22:10.708Z,4.13
2019-02-05T15:25:15.877Z,3.70
2019-02-05T15:28:21.059Z,4.07
2019-02-05T15:31:26.817Z,5.50
2019-02-05T15:34:32.120Z,4.80
2019-02-05T15:37:37.258Z,5.63
2019-02-05T15:40:42.491Z,5.07
2019-02-05T15:43:47.714Z,5.33
2019-02-05T15:46:52.914Z,5.70
2019-02-05T15:50:05.854Z,6.10
2019-02-05T15:53:05.113Z,6.10
2019-02-05T15:56:10.240Z,6.07
2019-02-05T15:59:15.379Z,6.30
2019-02-05T16:02:20.597Z,6.97
2019-02-05T16:05:25.716Z,8.63
2019-02-05T16:08:30.875Z,16.80
2019-02-05T16:11:36.022Z,7.27
2019-02-05T16:14:41.256Z,6.17
2019-02-05T16:17:46.597Z,6.50
2019-02-05T16:20:51.751Z,5.70
2019-02-05T16:23:58.249Z,6.13
2019-02-05T16:27:03.575Z,6.43
2019-02-05T16:30:13.087Z,5.30
2019-02-05T16:33:18.283Z,10.40
2019-02-05T16:36:23.448Z,6.30
2019-02-05T16:39:28.575Z,7.80
2019-02-05T16:42:33.694Z,6.07
2019-02-05T16:45:38.989Z,5.37
2019-02-05T16:48:44.127Z,9.30
2019-02-05T16:51:49.272Z,18.13
2019-02-05T16:54:54.421Z,7.30
2019-02-05T16:57:59.542Z,6.13
2019-02-05T17:01:05.267Z,8.47
2019-02-05T17:04:10.836Z,9.90
2019-02-05T17:07:15.921Z,10.20
2019-02-05T17:10:21.558Z,11.97
2019-02-05T17:13:26.719Z,12.13
2019-02-05T17:16:31.804Z,8.97
2019-02-05T17:19:36.921Z,7.60
2019-02-05T17:22:42.067Z,10.00
2019-02-05T17:25:47.131Z,9.77
2019-02-05T17:28:52.235Z,7.20
2019-02-05T17:31:57.354Z,7.17
2019-02-05T17:35:02.599Z,10.93
2019-02-05T17:38:09.268Z,8.10
2019-02-05T17:41:14.411Z,8.57
2019-02-05T17:44:19.584Z,15.53
2019-02-05T17:47:24.732Z,12.33
2019-02-05T17:50:29.871Z,13.13
2019-02-05T17:53:36.528Z,9.53
2019-02-05T17:56:41.711Z,7.33
2019-02-05T17:59:46.921Z,8.30
2019-02-05T18:02:52.297Z,13.27
2019-02-05T18:05:57.419Z,14.60
2019-02-05T18:09:05.017Z,16.17
2019-02-05T18:12:11.792Z,14.20
2019-02-05T18:15:22.809Z,10.13
2019-02-05T18:18:28.020Z,11.07
2019-02-05T18:21:33.150Z,10.40
2019-02-05T18:24:38.744Z,14.80
2019-02-05T18:27:43.937Z,14.53
2019-02-05T18:30:49.168Z,16.37
2019-02-05T18:33:55.419Z,15.87
2019-02-05T18:37:00.551Z,20.53
2019-02-05T18:40:06.860Z,17.50
2019-02-05T18:43:12.262Z,18.10
2019-02-05T18:46:17.381Z,14.33
2019-02-05T18:49:22.564Z,12.50
2019-02-05T18:52:27.730Z,13.93
2019-02-05T18:55:33.275Z,12.00
2019-02-05T18:58:38.439Z,12.97
2019-02-05T19:01:44.431Z,11.07
2019-02-05T19:04:50.118Z,10.03
2019-02-05T19:07:55.279Z,9.27
2019-02-05T19:11:00.508Z,8.00
2019-02-05T19:14:06.074Z,8.47
2019-02-05T19:17:11.231Z,9.23
2019-02-05T19:20:16.816Z,10.90
2019-02-05T19:23:21.985Z,10.20
2019-02-05T19:26:37.072Z,10.50
2019-02-05T19:29:42.306Z,13.40
2019-02-05T19:32:47.443Z,12.47
2019-02-05T19:35:52.940Z,11.50
2019-02-05T19:38:58.080Z,10.97
2019-02-05T19:42:03.263Z,9.33
2019-02-05T19:45:37.835Z,10.50
2019-02-05T19:48:49.068Z,10.00
2019-02-05T19:51:54.658Z,10.30
2019-02-05T19:55:01.122Z,8.73
2019-02-05T19:58:06.609Z,8.03
2019-02-05T20:01:11.835Z,9.10
2019-02-05T20:04:17.059Z,10.83
2019-02-05T20:07:22.308Z,16.63
2019-02-05T20:10:27.503Z,14.63
2019-02-05T20:13:39.989Z,13.83
2019-02-05T20:16:39.595Z,12.77
2019-02-05T20:19:44.796Z,15.50
2019-02-05T20:22:49.902Z,11.67
2019-02-05T20:25:55.179Z,12.83
2019-02-05T20:29:00.426Z,12.40
2019-02-05T20:32:05.742Z,13.23
2019-02-05T20:35:10.989Z,13.63
2019-02-05T20:38:16.213Z,12.73
2019-02-05T20:41:21.528Z,12.63
2019-02-05T20:44:26.697Z,12.97
2019-02-05T20:47:31.899Z,11.80
2019-02-05T20:50:37.108Z,13.53
2019-02-05T20:53:42.322Z,13.40
2019-02-05T20:56:47.453Z,14.90
2019-02-05T20:59:52.678Z,13.97
2019-02-05T21:02:57.957Z,14.43
2019-02-05T21:06:03.169Z,15.07
2019-02-05T21:09:17.261Z,16.77
2019-02-05T21:12:22.456Z,15.00
2019-02-05T21:15:27.955Z,14.93
2019-02-05T21:18:33.113Z,17.23
2019-02-05T21:21:38.330Z,17.97
2019-02-05T21:24:44.628Z,18.37
2019-02-05T21:27:49.762Z,20.90
2019-02-05T21:30:54.932Z,20.17
2019-02-05T21:34:02.500Z,22.77
2019-02-05T21:37:08.627Z,20.23
2019-02-05T21:40:23.398Z,19.97
2019-02-05T21:43:28.629Z,20.50
2019-02-05T21:46:33.729Z,20.87
2019-02-05T21:49:38.894Z,17.73
2019-02-05T21:52:44.103Z,16.90
2019-02-05T21:55:49.436Z,16.37
2019-02-05T21:58:54.629Z,19.13
2019-02-05T22:01:59.777Z,18.63
2019-02-05T22:05:06.293Z,18.07
2019-02-05T22:08:11.419Z,16.83
2019-02-05T22:11:16.623Z,17.33
2019-02-05T22:14:21.763Z,15.83
2019-02-05T22:17:26.876Z,16.93
2019-02-05T22:20:32.036Z,16.27
2019-02-05T22:23:37.146Z,17.00
2019-02-05T22:26:42.286Z,16.93
2019-02-05T22:29:48.222Z,16.80
2019-02-05T22:32:53.410Z,14.63
2019-02-05T22:35:58.610Z,17.47
2019-02-05T22:39:05.413Z,18.60
2019-02-05T22:42:12.338Z,16.57
2019-02-05T22:45:19.603Z,17.30
2019-02-05T22:48:24.815Z,16.03
2019-02-05T22:51:29.897Z,18.13
2019-02-05T22:54:35.013Z,21.73
2019-02-05T22:57:40.110Z,23.27
2019-02-05T23:00:51.685Z,29.27
2019-02-05T23:04:34.225Z,27.67
2019-02-05T23:07:39.327Z,25.90
2019-02-05T23:11:28.959Z,25.97
2019-02-05T23:14:34.137Z,27.73
2019-02-05T23:17:39.578Z,27.73
2019-02-05T23:20:44.830Z,25.53
2019-02-05T23:23:50.068Z,23.90
2019-02-05T23:26:55.371Z,21.73
2019-02-05T23:30:00.607Z,20.27
2019-02-05T23:33:05.939Z,19.67
2019-02-05T23:36:11.104Z,19.73
2019-02-05T23:39:16.301Z,19.03
2019-02-05T23:42:21.451Z,19.20
2019-02-05T23:45:26.621Z,18.40
2019-02-05T23:48:31.763Z,16.73
2019-02-05T23:51:36.889Z,17.73
2019-02-05T23:54:42.083Z,16.63
2019-02-05T23:57:47.266Z,17.10
